sensor_id;sensor_type;location;lat;lon;timestamp;pressure;altitude;pressure_sealevel;temperature;humidity
51239;BME280;38154;47.548;18.828;2022-08-01T00:00:24;98627.09;;;13.05;100.00
51239;BME280;38154;47.548;18.828;2022-08-01T00:02:50;98621.91;;;13.00;100.00
51239;BME280;38154;47.548;18.828;2022-08-01T00:05:16;98622.84;;;12.96;100.00
51239;BME280;38154;47.548;18.828;2022-08-01T00:07:43;98623.75;;;12.92;100.00
51239;BME280;38154;47.548;18.828;2022-08-01T00:10:12;98628.09;;;12.91;100.00
51239;BME280;38154;47.548;18.828;2022-08-01T00:12:39;98624.62;;;12.91;100.00
51239;BME280;38154;47.548;18.828;2022-08-01T00:15:07;98624.62;;;12.91;100.00
51239;BME280;38154;47.548;18.828;2022-08-01T00:17:33;98622.03;;;12.89;100.00
51239;BME280;38154;47.548;18.828;2022-08-01T00:19:59;98620.28;;;12.90;100.00
51239;BME280;38154;47.548;18.828;2022-08-01T00:22:25;98623.78;;;12.89;100.00
51239;BME280;38154;47.548;18.828;2022-08-01T00:24:50;98619.41;;;12.89;100.00
51239;BME280;38154;47.548;18.828;2022-08-01T00:27:16;98620.25;;;12.91;100.00
51239;BME280;38154;47.548;18.828;2022-08-01T00:29:42;98614.19;;;12.89;100.00
51239;BME280;38154;47.548;18.828;2022-08-01T00:32:08;98620.25;;;12.91;100.00
51239;BME280;38154;47.548;18.828;2022-08-01T00:34:34;98611.53;;;12.92;100.00
51239;BME280;38154;47.548;18.828;2022-08-01T00:37:00;98608.94;;;12.92;100.00
51239;BME280;38154;47.548;18.828;2022-08-01T00:39:25;98609.78;;;12.93;100.00
51239;BME280;38154;47.548;18.828;2022-08-01T00:41:51;98610.62;;;12.93;100.00
51239;BME280;38154;47.548;18.828;2022-08-01T00:44:17;98616.75;;;12.95;100.00
51239;BME280;38154;47.548;18.828;2022-08-01T00:46:43;98613.22;;;12.96;100.00
51239;BME280;38154;47.548;18.828;2022-08-01T00:49:09;98615.88;;;12.93;100.00
51239;BME280;38154;47.548;18.828;2022-08-01T00:51:35;98617.62;;;12.93;100.00
51239;BME280;38154;47.548;18.828;2022-08-01T00:54:01;98612.38;;;12.96;100.00
51239;BME280;38154;47.548;18.828;2022-08-01T00:56:27;98611.53;;;12.94;100.00
51239;BME280;38154;47.548;18.828;2022-08-01T00:58:54;98608.03;;;12.93;100.00
51239;BME280;38154;47.548;18.828;2022-08-01T01:01:21;98607.19;;;12.90;100.00
51239;BME280;38154;47.548;18.828;2022-08-01T01:03:48;98609.84;;;12.87;100.00
51239;BME280;38154;47.548;18.828;2022-08-01T01:06:26;98610.75;;;12.84;100.00
51239;BME280;38154;47.548;18.828;2022-08-01T01:09:02;98607.22;;;12.85;100.00
51239;BME280;38154;47.548;18.828;2022-08-01T01:11:36;98618.59;;;12.86;100.00
51239;BME280;38154;47.548;18.828;2022-08-01T01:14:10;98613.37;;;12.84;100.00
51239;BME280;38154;47.548;18.828;2022-08-01T01:16:40;98614.22;;;12.86;100.00
51239;BME280;38154;47.548;18.828;2022-08-01T01:19:11;98612.47;;;12.85;100.00
51239;BME280;38154;47.548;18.828;2022-08-01T01:26:57;98621.19;;;12.89;100.00
51239;BME280;38154;47.548;18.828;2022-08-01T01:29:43;98620.28;;;12.88;100.00
51239;BME280;38154;47.548;18.828;2022-08-01T01:32:20;98620.31;;;12.87;100.00
51239;BME280;38154;47.548;18.828;2022-08-01T01:34:50;98619.44;;;12.86;100.00
51239;BME280;38154;47.548;18.828;2022-08-01T01:37:20;98618.59;;;12.86;100.00
51239;BME280;38154;47.548;18.828;2022-08-01T01:39:49;98615.06;;;12.87;100.00
51239;BME280;38154;47.548;18.828;2022-08-01T01:42:17;98611.59;;;12.86;100.00
51239;BME280;38154;47.548;18.828;2022-08-01T01:44:45;98610.75;;;12.84;100.00
51239;BME280;38154;47.548;18.828;2022-08-01T01:47:13;98607.31;;;12.79;100.00
51239;BME280;38154;47.548;18.828;2022-08-01T01:49:40;98613.44;;;12.76;100.00
51239;BME280;38154;47.548;18.828;2022-08-01T01:52:07;98611.72;;;12.75;100.00
51239;BME280;38154;47.548;18.828;2022-08-01T01:54:37;98610.84;;;12.73;100.00
51239;BME280;38154;47.548;18.828;2022-08-01T01:57:06;98610.00;;;12.73;100.00
51239;BME280;38154;47.548;18.828;2022-08-01T01:59:34;98603.94;;;12.69;100.00
51239;BME280;38154;47.548;18.828;2022-08-01T02:02:03;98606.56;;;12.66;100.00
51239;BME280;38154;47.548;18.828;2022-08-01T02:04:30;98600.47;;;12.66;100.00
51239;BME280;38154;47.548;18.828;2022-08-01T02:06:58;98596.09;;;12.68;100.00
51239;BME280;38154;47.548;18.828;2022-08-01T02:09:27;98586.47;;;12.68;100.00
51239;BME280;38154;47.548;18.828;2022-08-01T02:11:54;98596.03;;;12.74;100.00
51239;BME280;38154;47.548;18.828;2022-08-01T02:14:22;98597.75;;;12.75;100.00
51239;BME280;38154;47.548;18.828;2022-08-01T02:16:49;98594.25;;;12.76;100.00
51239;BME280;38154;47.548;18.828;2022-08-01T02:19:18;98600.31;;;12.81;100.00
51239;BME280;38154;47.548;18.828;2022-08-01T02:21:52;98591.59;;;12.82;100.00
51239;BME280;38154;47.548;18.828;2022-08-01T02:24:38;98591.53;;;12.85;100.00
51239;BME280;38154;47.548;18.828;2022-08-01T02:27:09;98588.03;;;12.86;100.00
51239;BME280;38154;47.548;18.828;2022-08-01T02:29:47;98584.56;;;12.87;100.00
51239;BME280;38154;47.548;18.828;2022-08-01T02:32:25;98588.88;;;12.88;100.00
51239;BME280;38154;47.548;18.828;2022-08-01T02:34:53;98592.31;;;12.93;100.00
51239;BME280;38154;47.548;18.828;2022-08-01T02:37:22;98583.56;;;12.96;100.00
51239;BME280;38154;47.548;18.828;2022-08-01T02:39:51;98585.28;;;12.97;100.00
51239;BME280;38154;47.548;18.828;2022-08-01T02:42:18;98592.28;;;12.98;100.00
51239;BME280;38154;47.548;18.828;2022-08-01T02:44:46;98594.84;;;13.04;100.00
51239;BME280;38154;47.548;18.828;2022-08-01T02:47:13;98591.25;;;13.11;100.00
51239;BME280;38154;47.548;18.828;2022-08-01T02:49:42;98596.34;;;13.22;100.00
51239;BME280;38154;47.548;18.828;2022-08-01T02:52:12;98590.25;;;13.22;100.00
51239;BME280;38154;47.548;18.828;2022-08-01T02:54:40;98586.62;;;13.33;100.00
51239;BME280;38154;47.548;18.828;2022-08-01T02:57:08;98581.28;;;13.43;100.00
51239;BME280;38154;47.548;18.828;2022-08-01T02:59:36;98579.47;;;13.49;100.00
51239;BME280;38154;47.548;18.828;2022-08-01T03:02:04;98577.63;;;13.56;100.00
51239;BME280;38154;47.548;18.828;2022-08-01T03:04:33;98573.19;;;13.60;100.00
51239;BME280;38154;47.548;18.828;2022-08-01T03:07:01;98574.81;;;13.68;100.00
51239;BME280;38154;47.548;18.828;2022-08-01T03:09:29;98580.84;;;13.75;100.00
51239;BME280;38154;47.548;18.828;2022-08-01T03:12:01;98580.78;;;13.78;100.00
51239;BME280;38154;47.548;18.828;2022-08-01T03:14:29;98576.37;;;13.82;100.00
51239;BME280;38154;47.548;18.828;2022-08-01T03:16:57;98569.34;;;13.84;100.00
51239;BME280;38154;47.548;18.828;2022-08-01T03:19:25;98566.66;;;13.88;100.00
51239;BME280;38154;47.548;18.828;2022-08-01T03:21:52;98570.94;;;13.94;100.00
51239;BME280;38154;47.548;18.828;2022-08-01T03:24:21;98571.72;;;13.99;100.00
51239;BME280;38154;47.548;18.828;2022-08-01T03:26:48;98568.16;;;14.05;100.00
51239;BME280;38154;47.548;18.828;2022-08-01T03:29:22;98568.84;;;14.16;100.00
51239;BME280;38154;47.548;18.828;2022-08-01T03:31:50;98568.66;;;14.27;100.00
51239;BME280;38154;47.548;18.828;2022-08-01T03:34:16;98568.50;;;14.36;100.00
51239;BME280;38154;47.548;18.828;2022-08-01T03:36:47;98564.97;;;14.37;100.00
51239;BME280;38154;47.548;18.828;2022-08-01T03:39:16;98569.28;;;14.43;100.00
51239;BME280;38154;47.548;18.828;2022-08-01T03:41:48;98569.13;;;14.49;100.00
51239;BME280;38154;47.548;18.828;2022-08-01T03:44:16;98570.81;;;14.55;100.00
51239;BME280;38154;47.548;18.828;2022-08-01T03:46:46;98571.62;;;14.58;100.00
51239;BME280;38154;47.548;18.828;2022-08-01T03:49:20;98564.59;;;14.62;100.00
51239;BME280;38154;47.548;18.828;2022-08-01T03:51:48;98564.22;;;14.80;100.00
51239;BME280;38154;47.548;18.828;2022-08-01T03:54:29;98570.78;;;15.03;100.00
51239;BME280;38154;47.548;18.828;2022-08-01T03:56:57;98575.94;;;15.08;100.00
51239;BME280;38154;47.548;18.828;2022-08-01T03:59:24;98577.66;;;15.10;100.00
51239;BME280;38154;47.548;18.828;2022-08-01T04:01:50;98583.37;;;15.29;100.00
51239;BME280;38154;47.548;18.828;2022-08-01T04:04:17;98586.78;;;15.34;100.00
51239;BME280;38154;47.548;18.828;2022-08-01T04:06:42;98587.56;;;15.38;100.00
51239;BME280;38154;47.548;18.828;2022-08-01T04:09:11;98593.50;;;15.48;100.00
51239;BME280;38154;47.548;18.828;2022-08-01T04:11:38;98588.28;;;15.46;100.00
51239;BME280;38154;47.548;18.828;2022-08-01T04:14:03;98593.38;;;15.54;100.00
51239;BME280;38154;47.548;18.828;2022-08-01T04:16:29;98596.72;;;15.62;100.00
51239;BME280;38154;47.548;18.828;2022-08-01T04:18:55;98598.19;;;15.75;100.00
51239;BME280;38154;47.548;18.828;2022-08-01T04:21:24;98598.97;;;15.81;100.00
51239;BME280;38154;47.548;18.828;2022-08-01T04:23:54;98595.38;;;15.83;100.00
51239;BME280;38154;47.548;18.828;2022-08-01T04:26:21;98602.88;;;16.00;98.73
51239;BME280;38154;47.548;18.828;2022-08-01T04:28:48;98597.19;;;16.17;97.17
51239;BME280;38154;47.548;18.828;2022-08-01T04:31:16;98594.78;;;16.44;94.65
51239;BME280;38154;47.548;18.828;2022-08-01T04:33:46;98598.66;;;16.65;94.00
51239;BME280;38154;47.548;18.828;2022-08-01T04:36:15;98593.78;;;16.82;92.78
51239;BME280;38154;47.548;18.828;2022-08-01T04:38:45;98600.25;;;17.05;92.65
51239;BME280;38154;47.548;18.828;2022-08-01T04:41:13;98602.53;;;17.17;92.24
51239;BME280;38154;47.548;18.828;2022-08-01T04:43:39;98606.53;;;17.31;90.56
51239;BME280;38154;47.548;18.828;2022-08-01T04:46:07;98604.81;;;17.59;87.61
51239;BME280;38154;47.548;18.828;2022-08-01T04:48:38;98600.59;;;17.84;86.21
51239;BME280;38154;47.548;18.828;2022-08-01T04:51:04;98602.31;;;18.13;85.84
51239;BME280;38154;47.548;18.828;2022-08-01T04:53:30;98601.63;;;18.34;84.56
51239;BME280;38154;47.548;18.828;2022-08-01T04:55:58;98605.53;;;18.49;82.66
51239;BME280;38154;47.548;18.828;2022-08-01T04:58:24;98605.09;;;18.62;81.63
51239;BME280;38154;47.548;18.828;2022-08-01T05:00:49;98614.56;;;18.69;82.12
51239;BME280;38154;47.548;18.828;2022-08-01T05:03:15;98603.00;;;18.71;82.63
51239;BME280;38154;47.548;18.828;2022-08-01T05:05:41;98605.87;;;18.92;79.80
51239;BME280;38154;47.548;18.828;2022-08-01T05:08:07;98607.66;;;19.15;78.85
51239;BME280;38154;47.548;18.828;2022-08-01T05:10:33;98603.38;;;19.36;78.22
51239;BME280;38154;47.548;18.828;2022-08-01T05:12:59;98605.63;;;19.47;76.39
51239;BME280;38154;47.548;18.828;2022-08-01T05:15:25;98608.84;;;19.55;76.36
51239;BME280;38154;47.548;18.828;2022-08-01T05:17:52;98610.53;;;19.81;74.88
51239;BME280;38154;47.548;18.828;2022-08-01T05:20:18;98608.19;;;19.96;74.67
51239;BME280;38154;47.548;18.828;2022-08-01T05:22:44;98604.38;;;20.03;72.87
51239;BME280;38154;47.548;18.828;2022-08-01T05:25:10;98602.47;;;20.07;73.29
51239;BME280;38154;47.548;18.828;2022-08-01T05:27:35;98598.41;;;20.20;72.26
51239;BME280;38154;47.548;18.828;2022-08-01T05:30:07;98599.69;;;20.32;72.75
51239;BME280;38154;47.548;18.828;2022-08-01T05:32:33;98599.09;;;20.46;72.67
51239;BME280;38154;47.548;18.828;2022-08-01T05:34:59;98605.81;;;20.54;71.21
51239;BME280;38154;47.548;18.828;2022-08-01T05:37:25;98598.41;;;20.63;71.27
51239;BME280;38154;47.548;18.828;2022-08-01T05:39:51;98601.84;;;20.66;71.07
51239;BME280;38154;47.548;18.828;2022-08-01T05:42:17;98591.59;;;20.78;71.10
51239;BME280;38154;47.548;18.828;2022-08-01T05:44:42;98597.78;;;20.99;69.70
51239;BME280;38154;47.548;18.828;2022-08-01T05:47:08;98594.62;;;21.09;69.51
51239;BME280;38154;47.548;18.828;2022-08-01T05:49:34;98601.19;;;21.21;69.31
51239;BME280;38154;47.548;18.828;2022-08-01T05:52:00;98605.38;;;21.46;68.32
51239;BME280;38154;47.548;18.828;2022-08-01T05:54:27;98605.13;;;21.71;66.61
51239;BME280;38154;47.548;18.828;2022-08-01T05:56:53;98598.53;;;21.99;65.06
51239;BME280;38154;47.548;18.828;2022-08-01T05:59:20;98607.38;;;22.17;63.79
51239;BME280;38154;47.548;18.828;2022-08-01T06:01:46;98607.94;;;22.42;63.55
51239;BME280;38154;47.548;18.828;2022-08-01T06:04:12;98606.44;;;22.54;63.12
51239;BME280;38154;47.548;18.828;2022-08-01T06:06:37;98609.50;;;22.64;61.15
51239;BME280;38154;47.548;18.828;2022-08-01T06:09:03;98609.88;;;22.91;61.25
51239;BME280;38154;47.548;18.828;2022-08-01T06:11:29;98610.66;;;23.11;59.73
51239;BME280;38154;47.548;18.828;2022-08-01T06:13:55;98617.03;;;23.42;60.18
51239;BME280;38154;47.548;18.828;2022-08-01T06:16:21;98616.56;;;24.15;57.39
51239;BME280;38154;47.548;18.828;2022-08-01T06:18:47;98628.34;;;25.03;54.46
51239;BME280;38154;47.548;18.828;2022-08-01T06:21:13;98629.50;;;26.41;49.79
51239;BME280;38154;47.548;18.828;2022-08-01T06:23:39;98627.47;;;27.88;46.44
51239;BME280;38154;47.548;18.828;2022-08-01T06:26:06;98632.31;;;28.92;43.30
51239;BME280;38154;47.548;18.828;2022-08-01T06:28:33;98628.03;;;28.90;42.43
51239;BME280;38154;47.548;18.828;2022-08-01T06:30:58;98625.03;;;29.05;42.52
51239;BME280;38154;47.548;18.828;2022-08-01T06:33:25;98631.06;;;30.22;39.25
51239;BME280;38154;47.548;18.828;2022-08-01T06:35:52;98624.16;;;32.68;34.19
51239;BME280;38154;47.548;18.828;2022-08-01T06:38:17;98627.19;;;34.07;30.96
51239;BME280;38154;47.548;18.828;2022-08-01T06:40:43;98627.28;;;35.49;29.16
51239;BME280;38154;47.548;18.828;2022-08-01T06:43:09;98619.94;;;36.78;26.95
51239;BME280;38154;47.548;18.828;2022-08-01T06:45:40;98626.72;;;37.39;25.32
51239;BME280;38154;47.548;18.828;2022-08-01T06:48:06;98621.59;;;37.92;24.64
51239;BME280;38154;47.548;18.828;2022-08-01T06:50:33;98624.97;;;38.34;23.25
51239;BME280;38154;47.548;18.828;2022-08-01T06:53:01;98631.06;;;38.67;23.56
51239;BME280;38154;47.548;18.828;2022-08-01T06:55:27;98628.34;;;38.36;23.84
51239;BME280;38154;47.548;18.828;2022-08-01T06:57:53;98629.94;;;39.23;22.38
51239;BME280;38154;47.548;18.828;2022-08-01T07:00:21;98625.50;;;39.22;22.38
51239;BME280;38154;47.548;18.828;2022-08-01T07:02:52;98621.37;;;39.85;21.72
51239;BME280;38154;47.548;18.828;2022-08-01T07:05:19;98625.00;;;40.01;20.90
51239;BME280;38154;47.548;18.828;2022-08-01T07:07:45;98624.47;;;39.23;21.94
51239;BME280;38154;47.548;18.828;2022-08-01T07:10:11;98616.84;;;38.80;22.07
51239;BME280;38154;47.548;18.828;2022-08-01T07:12:37;98611.91;;;39.66;21.66
51239;BME280;38154;47.548;18.828;2022-08-01T07:15:05;98625.31;;;39.23;22.80
51239;BME280;38154;47.548;18.828;2022-08-01T07:17:31;98614.63;;;39.81;22.17
51239;BME280;38154;47.548;18.828;2022-08-01T07:19:57;98618.97;;;40.27;20.92
51239;BME280;38154;47.548;18.828;2022-08-01T07:22:23;98617.88;;;38.48;22.60
51239;BME280;38154;47.548;18.828;2022-08-01T07:24:49;98607.66;;;36.40;25.46
51239;BME280;38154;47.548;18.828;2022-08-01T07:27:14;98607.63;;;34.23;30.20
51239;BME280;38154;47.548;18.828;2022-08-01T07:29:40;98612.78;;;31.85;33.07
51239;BME280;38154;47.548;18.828;2022-08-01T07:32:06;98614.25;;;30.74;35.48
51239;BME280;38154;47.548;18.828;2022-08-01T07:34:32;98609.09;;;30.06;37.11
51239;BME280;38154;47.548;18.828;2022-08-01T07:36:58;98613.47;;;29.28;37.11
51239;BME280;38154;47.548;18.828;2022-08-01T07:39:24;98609.81;;;28.46;39.39
51239;BME280;38154;47.548;18.828;2022-08-01T07:41:50;98621.56;;;27.58;41.98
51239;BME280;38154;47.548;18.828;2022-08-01T07:44:15;98622.06;;;27.12;44.13
51239;BME280;38154;47.548;18.828;2022-08-01T07:46:41;98615.59;;;26.76;45.01
51239;BME280;38154;47.548;18.828;2022-08-01T07:49:07;98613.34;;;26.83;46.18
51239;BME280;38154;47.548;18.828;2022-08-01T07:51:33;98620.94;;;26.49;47.31
51239;BME280;38154;47.548;18.828;2022-08-01T07:53:59;98616.13;;;26.41;47.73
51239;BME280;38154;47.548;18.828;2022-08-01T07:56:24;98618.34;;;25.93;49.03
51239;BME280;38154;47.548;18.828;2022-08-01T07:58:51;98617.31;;;25.67;50.31
51239;BME280;38154;47.548;18.828;2022-08-01T08:01:17;98615.63;;;25.66;50.53
51239;BME280;38154;47.548;18.828;2022-08-01T08:03:43;98620.69;;;25.56;50.19
51239;BME280;38154;47.548;18.828;2022-08-01T08:06:09;98614.69;;;25.52;50.37
51239;BME280;38154;47.548;18.828;2022-08-01T08:08:35;98621.47;;;25.13;51.84
51239;BME280;38154;47.548;18.828;2022-08-01T08:11:01;98619.13;;;24.78;53.19
51239;BME280;38154;47.548;18.828;2022-08-01T08:13:27;98624.69;;;24.90;52.51
51239;BME280;38154;47.548;18.828;2022-08-01T08:15:53;98624.72;;;25.04;52.43
51239;BME280;38154;47.548;18.828;2022-08-01T08:18:18;98630.16;;;25.03;52.07
51239;BME280;38154;47.548;18.828;2022-08-01T08:20:44;98626.50;;;25.04;52.27
51239;BME280;38154;47.548;18.828;2022-08-01T08:23:10;98621.97;;;25.06;50.55
51239;BME280;38154;47.548;18.828;2022-08-01T08:25:56;98626.34;;;25.07;49.60
51239;BME280;38154;47.548;18.828;2022-08-01T08:28:22;98625.84;;;24.86;48.58
51239;BME280;38154;47.548;18.828;2022-08-01T08:30:48;98623.25;;;24.84;48.83
51239;BME280;38154;47.548;18.828;2022-08-01T08:33:14;98622.91;;;25.05;48.76
51239;BME280;38154;47.548;18.828;2022-08-01T08:35:40;98625.22;;;25.11;48.60
51239;BME280;38154;47.548;18.828;2022-08-01T08:38:07;98627.09;;;25.39;46.68
51239;BME280;38154;47.548;18.828;2022-08-01T08:40:35;98628.84;;;25.67;46.04
51239;BME280;38154;47.548;18.828;2022-08-01T08:43:04;98629.53;;;26.00;44.17
51239;BME280;38154;47.548;18.828;2022-08-01T08:45:31;98636.47;;;26.02;44.38
51239;BME280;38154;47.548;18.828;2022-08-01T08:47:58;98638.97;;;26.33;42.42
51239;BME280;38154;47.548;18.828;2022-08-01T08:50:25;98644.09;;;26.36;42.68
51239;BME280;38154;47.548;18.828;2022-08-01T08:52:53;98643.97;;;26.24;42.16
51239;BME280;38154;47.548;18.828;2022-08-01T08:55:20;98643.97;;;26.24;42.10
51239;BME280;38154;47.548;18.828;2022-08-01T08:57:47;98646.47;;;26.13;42.80
51239;BME280;38154;47.548;18.828;2022-08-01T09:00:13;98646.50;;;25.84;43.35
51239;BME280;38154;47.548;18.828;2022-08-01T09:02:44;98644.22;;;25.78;43.73
51239;BME280;38154;47.548;18.828;2022-08-01T09:05:10;98641.34;;;25.81;43.97
51239;BME280;38154;47.548;18.828;2022-08-01T09:07:37;98652.69;;;25.85;44.76
51239;BME280;38154;47.548;18.828;2022-08-01T09:10:04;98641.91;;;26.01;45.62
51239;BME280;38154;47.548;18.828;2022-08-01T09:12:30;98642.97;;;25.98;46.13
51239;BME280;38154;47.548;18.828;2022-08-01T09:14:56;98649.25;;;26.12;46.27
51239;BME280;38154;47.548;18.828;2022-08-01T09:17:22;98645.56;;;26.00;45.59
51239;BME280;38154;47.548;18.828;2022-08-01T09:19:51;98649.53;;;26.07;45.93
51239;BME280;38154;47.548;18.828;2022-08-01T09:22:19;98643.75;;;26.27;45.58
51239;BME280;38154;47.548;18.828;2022-08-01T09:27:30;98643.56;;;26.85;44.73
51239;BME280;38154;47.548;18.828;2022-08-01T09:30:10;98640.16;;;27.60;42.45
51239;BME280;38154;47.548;18.828;2022-08-01T09:32:53;98642.78;;;28.11;41.44
51239;BME280;38154;47.548;18.828;2022-08-01T09:35:24;98641.19;;;29.17;39.60
51239;BME280;38154;47.548;18.828;2022-08-01T09:37:50;98645.16;;;29.81;38.21
51239;BME280;38154;47.548;18.828;2022-08-01T09:40:16;98643.13;;;30.28;38.01
51239;BME280;38154;47.548;18.828;2022-08-01T09:42:42;98642.97;;;30.52;36.99
51239;BME280;38154;47.548;18.828;2022-08-01T09:45:08;98641.03;;;30.31;36.79
51239;BME280;38154;47.548;18.828;2022-08-01T09:47:40;98639.34;;;30.30;36.43
51239;BME280;38154;47.548;18.828;2022-08-01T09:50:06;98643.56;;;29.89;37.95
51239;BME280;38154;47.548;18.828;2022-08-01T09:52:32;98635.25;;;29.70;37.96
51239;BME280;38154;47.548;18.828;2022-08-01T09:54:59;98631.59;;;29.93;37.58
51239;BME280;38154;47.548;18.828;2022-08-01T09:57:26;98638.19;;;30.01;37.04
51239;BME280;38154;47.548;18.828;2022-08-01T09:59:53;98627.19;;;29.81;38.19
51239;BME280;38154;47.548;18.828;2022-08-01T10:02:33;98629.53;;;29.97;38.12
51239;BME280;38154;47.548;18.828;2022-08-01T10:05:00;98627.44;;;30.01;36.90
51239;BME280;38154;47.548;18.828;2022-08-01T10:07:26;98623.47;;;30.16;37.27
51239;BME280;38154;47.548;18.828;2022-08-01T10:09:52;98632.38;;;30.28;37.21
51239;BME280;38154;47.548;18.828;2022-08-01T10:12:21;98631.09;;;30.55;36.67
51239;BME280;38154;47.548;18.828;2022-08-01T10:14:49;98625.72;;;30.55;37.44
51239;BME280;38154;47.548;18.828;2022-08-01T10:17:17;98636.59;;;30.53;36.93
51239;BME280;38154;47.548;18.828;2022-08-01T10:19:44;98632.78;;;30.88;35.60
51239;BME280;38154;47.548;18.828;2022-08-01T10:22:12;98626.03;;;30.61;37.12
51239;BME280;38154;47.548;18.828;2022-08-01T10:24:46;98633.31;;;30.49;34.62
51239;BME280;38154;47.548;18.828;2022-08-01T10:27:15;98627.25;;;30.89;34.88
51239;BME280;38154;47.548;18.828;2022-08-01T10:29:47;98625.59;;;31.10;35.05
51239;BME280;38154;47.548;18.828;2022-08-01T10:32:16;98627.19;;;30.80;34.78
51239;BME280;38154;47.548;18.828;2022-08-01T10:34:42;98627.22;;;30.68;35.38
51239;BME280;38154;47.548;18.828;2022-08-01T10:37:09;98628.28;;;30.56;35.50
51239;BME280;38154;47.548;18.828;2022-08-01T10:39:36;98625.78;;;30.64;35.34
51239;BME280;38154;47.548;18.828;2022-08-01T10:42:02;98630.03;;;30.34;35.29
51239;BME280;38154;47.548;18.828;2022-08-01T10:44:30;98621.13;;;30.34;35.80
51239;BME280;38154;47.548;18.828;2022-08-01T10:47:04;98619.09;;;30.15;36.19
51239;BME280;38154;47.548;18.828;2022-08-01T10:49:34;98625.28;;;29.83;36.27
51239;BME280;38154;47.548;18.828;2022-08-01T10:52:03;98614.47;;;29.94;36.68
51239;BME280;38154;47.548;18.828;2022-08-01T10:54:38;98612.38;;;30.09;36.22
51239;BME280;38154;47.548;18.828;2022-08-01T10:57:04;98604.97;;;30.45;36.87
51239;BME280;38154;47.548;18.828;2022-08-01T10:59:32;98601.94;;;30.92;35.61
51239;BME280;38154;47.548;18.828;2022-08-01T11:02:04;98597.94;;;31.07;34.63
51239;BME280;38154;47.548;18.828;2022-08-01T11:04:56;98610.19;;;31.42;33.45
51239;BME280;38154;47.548;18.828;2022-08-01T11:07:42;98603.94;;;31.73;32.66
51239;BME280;38154;47.548;18.828;2022-08-01T11:10:36;98606.56;;;31.53;32.90
51239;BME280;38154;47.548;18.828;2022-08-01T11:13:02;98599.16;;;31.24;32.37
51239;BME280;38154;47.548;18.828;2022-08-01T11:15:31;98602.06;;;31.12;32.81
51239;BME280;38154;47.548;18.828;2022-08-01T11:17:59;98600.47;;;30.88;33.86
51239;BME280;38154;47.548;18.828;2022-08-01T11:20:28;98598.13;;;30.74;33.49
51239;BME280;38154;47.548;18.828;2022-08-01T11:30:52;98595.34;;;30.85;34.71
51239;BME280;38154;47.548;18.828;2022-08-01T11:38:43;98593.63;;;30.42;34.08
51239;BME280;38154;47.548;18.828;2022-08-01T11:44:03;98586.50;;;30.29;34.24
51239;BME280;38154;47.548;18.828;2022-08-01T11:52:29;98589.78;;;30.01;34.08
51239;BME280;38154;47.548;18.828;2022-08-01T11:55:07;98593.00;;;29.72;35.72
51239;BME280;38154;47.548;18.828;2022-08-01T11:57:34;98594.09;;;29.58;36.73
51239;BME280;38154;47.548;18.828;2022-08-01T12:00:10;98594.72;;;29.50;36.35
51239;BME280;38154;47.548;18.828;2022-08-01T12:02:37;98587.84;;;29.23;36.20
51239;BME280;38154;47.548;18.828;2022-08-01T12:05:11;98583.56;;;29.10;36.36
51239;BME280;38154;47.548;18.828;2022-08-01T12:07:42;98585.34;;;28.86;36.25
51239;BME280;38154;47.548;18.828;2022-08-01T12:10:10;98583.84;;;28.71;35.62
51239;BME280;38154;47.548;18.828;2022-08-01T12:12:41;98596.72;;;28.42;37.31
51239;BME280;38154;47.548;18.828;2022-08-01T12:15:09;98590.00;;;28.36;38.23
51239;BME280;38154;47.548;18.828;2022-08-01T12:17:46;98591.28;;;28.19;37.94
51239;BME280;38154;47.548;18.828;2022-08-01T12:20:15;98593.56;;;28.12;37.73
51239;BME280;38154;47.548;18.828;2022-08-01T12:22:42;98583.53;;;28.27;38.18
51239;BME280;38154;47.548;18.828;2022-08-01T12:25:11;98591.41;;;28.53;37.65
51239;BME280;38154;47.548;18.828;2022-08-01T12:27:38;98576.88;;;28.68;36.91
51239;BME280;38154;47.548;18.828;2022-08-01T12:30:09;98588.09;;;28.74;35.84
51239;BME280;38154;47.548;18.828;2022-08-01T12:32:37;98581.53;;;28.78;35.97
51239;BME280;38154;47.548;18.828;2022-08-01T12:35:14;98588.44;;;28.69;36.82
51239;BME280;38154;47.548;18.828;2022-08-01T12:37:48;98582.16;;;28.81;36.37
51239;BME280;38154;47.548;18.828;2022-08-01T12:40:16;98580.09;;;28.85;36.95
51239;BME280;38154;47.548;18.828;2022-08-01T12:42:45;98590.09;;;28.83;37.11
51239;BME280;38154;47.548;18.828;2022-08-01T12:48:01;98580.19;;;28.83;37.45
51239;BME280;38154;47.548;18.828;2022-08-01T12:50:32;98574.47;;;28.88;36.11
51239;BME280;38154;47.548;18.828;2022-08-01T12:53:01;98570.69;;;28.91;35.23
51239;BME280;38154;47.548;18.828;2022-08-01T12:55:27;98570.09;;;28.98;36.65
51239;BME280;38154;47.548;18.828;2022-08-01T13:00:30;98570.59;;;29.03;35.77
51239;BME280;38154;47.548;18.828;2022-08-01T13:03:15;98567.44;;;29.10;36.13
51239;BME280;38154;47.548;18.828;2022-08-01T13:05:43;98563.09;;;29.31;35.53
51239;BME280;38154;47.548;18.828;2022-08-01T13:08:11;98565.34;;;29.92;33.07
51239;BME280;38154;47.548;18.828;2022-08-01T13:10:38;98571.94;;;30.43;33.34
51239;BME280;38154;47.548;18.828;2022-08-01T13:13:04;98567.44;;;30.44;34.27
51239;BME280;38154;47.548;18.828;2022-08-01T13:15:33;98562.63;;;30.47;34.35
51239;BME280;38154;47.548;18.828;2022-08-01T13:18:24;98554.09;;;30.31;34.39
51239;BME280;38154;47.548;18.828;2022-08-01T13:21:07;98558.84;;;30.06;34.68
51239;BME280;38154;47.548;18.828;2022-08-01T13:23:34;98553.22;;;30.09;33.87
51239;BME280;38154;47.548;18.828;2022-08-01T13:26:00;98562.13;;;30.10;33.25
51239;BME280;38154;47.548;18.828;2022-08-01T13:28:26;98559.25;;;29.90;33.61